sensor_id;sensor_type;location;lat;lon;timestamp;pressure;altitude;pressure_sealevel;temperature;humidity
44044;BME280;29709;52.396;16.796;2023-02-26T00:01:18;100851.27;;;1.01;80.80
44044;BME280;29709;52.396;16.796;2023-02-26T00:04:32;100859.50;;;1.00;80.97
44044;BME280;29709;52.396;16.796;2023-02-26T00:07:46;100859.91;;;0.94;80.79
44044;BME280;29709;52.396;16.796;2023-02-26T00:10:59;100870.66;;;0.95;80.93
44044;BME280;29709;52.396;16.796;2023-02-26T00:14:16;100869.87;;;0.93;80.94
44044;BME280;29709;52.396;16.796;2023-02-26T00:20:58;100884.92;;;0.84;81.13
44044;BME280;29709;52.396;16.796;2023-02-26T00:24:11;100886.65;;;0.85;81.05
44044;BME280;29709;52.396;16.796;2023-02-26T00:27:25;100894.55;;;0.89;81.16
44044;BME280;29709;52.396;16.796;2023-02-26T00:30:39;100891.38;;;0.82;81.02
44044;BME280;29709;52.396;16.796;2023-02-26T00:33:54;100897.01;;;0.79;81.14
44044;BME280;29709;52.396;16.796;2023-02-26T00:37:15;100900.80;;;0.76;81.16
44044;BME280;29709;52.396;16.796;2023-02-26T00:43:56;100912.02;;;0.70;81.42
44044;BME280;29709;52.396;16.796;2023-02-26T00:50:45;100912.02;;;0.70;81.57
44044;BME280;29709;52.396;16.796;2023-02-26T00:57:25;100915.95;;;0.79;81.80
44044;BME280;29709;52.396;16.796;2023-02-26T01:00:38;100930.12;;;0.82;81.40
44044;BME280;29709;52.396;16.796;2023-02-26T01:03:52;100928.10;;;0.86;81.07
44044;BME280;29709;52.396;16.796;2023-02-26T01:07:08;100930.59;;;0.89;81.31
44044;BME280;29709;52.396;16.796;2023-02-26T01:10:23;100931.45;;;0.90;80.84
44044;BME280;29709;52.396;16.796;2023-02-26T01:13:40;100938.37;;;0.94;80.90
44044;BME280;29709;52.396;16.796;2023-02-26T01:20:28;100939.79;;;0.86;80.52
44044;BME280;29709;52.396;16.796;2023-02-26T01:23:46;100940.45;;;0.90;80.15
44044;BME280;29709;52.396;16.796;2023-02-26T01:27:03;100939.10;;;0.83;80.13
44044;BME280;29709;52.396;16.796;2023-02-26T01:30:17;100937.48;;;0.80;80.04
44044;BME280;29709;52.396;16.796;2023-02-26T01:37:03;100948.02;;;0.85;80.11
44044;BME280;29709;52.396;16.796;2023-02-26T01:50:38;100967.69;;;0.60;80.54
44044;BME280;29709;52.396;16.796;2023-02-26T01:53:52;100984.89;;;0.59;80.58
44044;BME280;29709;52.396;16.796;2023-02-26T01:57:10;100983.05;;;0.60;80.43
44044;BME280;29709;52.396;16.796;2023-02-26T02:00:24;100985.87;;;0.58;80.49
44044;BME280;29709;52.396;16.796;2023-02-26T02:03:39;100985.11;;;0.56;80.50
44044;BME280;29709;52.396;16.796;2023-02-26T02:06:54;100991.48;;;0.55;80.52
44044;BME280;29709;52.396;16.796;2023-02-26T02:10:08;101000.74;;;0.51;80.42
44044;BME280;29709;52.396;16.796;2023-02-26T02:27:08;101013.81;;;0.44;80.16
44044;BME280;29709;52.396;16.796;2023-02-26T02:34:08;101028.41;;;0.42;80.33
44044;BME280;29709;52.396;16.796;2023-02-26T02:40:46;101034.67;;;0.42;80.20
44044;BME280;29709;52.396;16.796;2023-02-26T02:44:04;101038.24;;;0.43;80.34
44044;BME280;29709;52.396;16.796;2023-02-26T02:47:21;101034.57;;;0.44;80.39
44044;BME280;29709;52.396;16.796;2023-02-26T02:50:43;101051.66;;;0.44;80.28
44044;BME280;29709;52.396;16.796;2023-02-26T02:54:09;101058.04;;;0.43;80.33
44044;BME280;29709;52.396;16.796;2023-02-26T02:57:28;101063.05;;;0.35;80.54
44044;BME280;29709;52.396;16.796;2023-02-26T03:00:48;101061.32;;;0.34;80.60
44044;BME280;29709;52.396;16.796;2023-02-26T03:04:08;101072.41;;;0.29;80.86
44044;BME280;29709;52.396;16.796;2023-02-26T03:07:23;101083.42;;;0.26;80.99
44044;BME280;29709;52.396;16.796;2023-02-26T03:10:38;101087.29;;;0.22;81.21
44044;BME280;29709;52.396;16.796;2023-02-26T03:13:52;101087.56;;;0.18;81.73
44044;BME280;29709;52.396;16.796;2023-02-26T03:20:36;101103.88;;;0.16;81.86
44044;BME280;29709;52.396;16.796;2023-02-26T03:27:26;101107.55;;;0.15;81.90
44044;BME280;29709;52.396;16.796;2023-02-26T03:34:12;101116.33;;;0.19;81.88
44044;BME280;29709;52.396;16.796;2023-02-26T03:37:35;101128.00;;;0.19;82.11
44044;BME280;29709;52.396;16.796;2023-02-26T03:40:56;101128.87;;;0.20;82.01
44044;BME280;29709;52.396;16.796;2023-02-26T03:44:17;101139.61;;;0.21;82.05
44044;BME280;29709;52.396;16.796;2023-02-26T03:47:38;101141.46;;;0.21;82.07
44044;BME280;29709;52.396;16.796;2023-02-26T03:50:57;101155.53;;;0.12;82.41
44044;BME280;29709;52.396;16.796;2023-02-26T03:54:19;101160.64;;;0.16;82.18
44044;BME280;29709;52.396;16.796;2023-02-26T03:57:34;101164.11;;;0.18;82.31
44044;BME280;29709;52.396;16.796;2023-02-26T04:00:53;101174.05;;;0.18;82.33
44044;BME280;29709;52.396;16.796;2023-02-26T04:07:38;101178.78;;;0.14;82.23
44044;BME280;29709;52.396;16.796;2023-02-26T04:10:57;101171.64;;;0.13;82.36
44044;BME280;29709;52.396;16.796;2023-02-26T04:14:11;101183.13;;;0.17;82.30
44044;BME280;29709;52.396;16.796;2023-02-26T04:17:25;101194.71;;;0.19;82.34
44044;BME280;29709;52.396;16.796;2023-02-26T04:20:38;101195.68;;;0.18;82.28
44044;BME280;29709;52.396;16.796;2023-02-26T04:23:52;101197.51;;;0.17;82.23
44044;BME280;29709;52.396;16.796;2023-02-26T04:27:06;101201.86;;;0.20;82.13
44044;BME280;29709;52.396;16.796;2023-02-26T04:30:19;101203.88;;;0.16;81.92
44044;BME280;29709;52.396;16.796;2023-02-26T04:33:33;101204.75;;;0.17;82.14
44044;BME280;29709;52.396;16.796;2023-02-26T04:36:47;101212.95;;;0.15;82.21
44044;BME280;29709;52.396;16.796;2023-02-26T04:40:00;101217.50;;;0.15;82.13
44044;BME280;29709;52.396;16.796;2023-02-26T04:43:14;101220.10;;;0.16;81.90
44044;BME280;29709;52.396;16.796;2023-02-26T04:46:27;101218.55;;;0.12;82.75
44044;BME280;29709;52.396;16.796;2023-02-26T04:49:41;101216.63;;;0.14;82.32
44044;BME280;29709;52.396;16.796;2023-02-26T04:52:54;101227.25;;;0.17;82.38
44044;BME280;29709;52.396;16.796;2023-02-26T04:56:08;101231.59;;;0.20;82.30
44044;BME280;29709;52.396;16.796;2023-02-26T04:59:22;101242.14;;;0.24;81.95
44044;BME280;29709;52.396;16.796;2023-02-26T05:02:35;101240.22;;;0.26;81.97
44044;BME280;29709;52.396;16.796;2023-02-26T05:05:48;101241.76;;;0.31;81.87
44044;BME280;29709;52.396;16.796;2023-02-26T05:09:03;101251.45;;;0.35;81.71
44044;BME280;29709;52.396;16.796;2023-02-26T05:12:16;101256.76;;;0.36;81.70
44044;BME280;29709;52.396;16.796;2023-02-26T05:15:30;101262.59;;;0.44;81.63
44044;BME280;29709;52.396;16.796;2023-02-26T05:18:44;101272.34;;;0.47;81.31
44044;BME280;29709;52.396;16.796;2023-02-26T05:21:57;101268.47;;;0.51;81.13
44044;BME280;29709;52.396;16.796;2023-02-26T05:25:11;101262.80;;;0.55;81.10
44044;BME280;29709;52.396;16.796;2023-02-26T05:28:26;101280.09;;;0.53;80.86
44044;BME280;29709;52.396;16.796;2023-02-26T05:31:40;101284.91;;;0.62;80.90
44044;BME280;29709;52.396;16.796;2023-02-26T05:34:54;101286.59;;;0.65;81.20
44044;BME280;29709;52.396;16.796;2023-02-26T05:38:08;101292.57;;;0.70;81.27
44044;BME280;29709;52.396;16.796;2023-02-26T05:41:21;101292.31;;;0.74;81.17
44044;BME280;29709;52.396;16.796;2023-02-26T05:44:35;101297.53;;;0.77;81.42
44044;BME280;29709;52.396;16.796;2023-02-26T05:47:48;101309.99;;;0.80;81.49
44044;BME280;29709;52.396;16.796;2023-02-26T05:51:02;101312.80;;;0.78;81.75
44044;BME280;29709;52.396;16.796;2023-02-26T05:54:15;101325.09;;;0.84;81.70
44044;BME280;29709;52.396;16.796;2023-02-26T05:57:29;101335.05;;;0.83;81.74
44044;BME280;29709;52.396;16.796;2023-02-26T06:00:43;101335.63;;;0.89;81.80
44044;BME280;29709;52.396;16.796;2023-02-26T06:03:56;101336.40;;;0.91;81.87
44044;BME280;29709;52.396;16.796;2023-02-26T06:07:10;101343.64;;;0.90;81.99
44044;BME280;29709;52.396;16.796;2023-02-26T06:10:23;101347.99;;;0.93;81.83
44044;BME280;29709;52.396;16.796;2023-02-26T06:13:37;101353.41;;;0.93;81.87
44044;BME280;29709;52.396;16.796;2023-02-26T06:16:50;101365.90;;;0.95;81.88
44044;BME280;29709;52.396;16.796;2023-02-26T06:20:05;101361.16;;;0.99;81.97
44044;BME280;29709;52.396;16.796;2023-02-26T06:23:18;101367.95;;;1.06;82.01
44044;BME280;29709;52.396;16.796;2023-02-26T06:26:32;101372.30;;;1.08;81.71
44044;BME280;29709;52.396;16.796;2023-02-26T06:29:46;101375.78;;;1.10;81.96
44044;BME280;29709;52.396;16.796;2023-02-26T06:32:59;101387.28;;;1.14;81.83
44044;BME280;29709;52.396;16.796;2023-02-26T06:36:13;101395.34;;;1.15;82.13
44044;BME280;29709;52.396;16.796;2023-02-26T06:39:26;101398.42;;;1.24;81.97
44044;BME280;29709;52.396;16.796;2023-02-26T06:42:40;101400.67;;;1.31;81.75
44044;BME280;29709;52.396;16.796;2023-02-26T06:45:57;101407.46;;;1.38;81.63
44044;BME280;29709;52.396;16.796;2023-02-26T06:49:10;101409.10;;;1.41;81.05
44044;BME280;29709;52.396;16.796;2023-02-26T06:52:24;101411.91;;;1.39;81.24
44044;BME280;29709;52.396;16.796;2023-02-26T06:55:43;101420.23;;;1.36;81.09
44044;BME280;29709;52.396;16.796;2023-02-26T06:58:57;101423.42;;;1.43;81.29
44044;BME280;29709;52.396;16.796;2023-02-26T07:02:17;101423.31;;;1.44;81.05
44044;BME280;29709;52.396;16.796;2023-02-26T07:05:31;101437.82;;;1.43;81.09
44044;BME280;29709;52.396;16.796;2023-02-26T07:08:45;101430.77;;;1.41;81.13
44044;BME280;29709;52.396;16.796;2023-02-26T07:11:58;101444.82;;;1.48;81.52
44044;BME280;29709;52.396;16.796;2023-02-26T07:15:12;101442.27;;;1.44;81.42
44044;BME280;29709;52.396;16.796;2023-02-26T07:18:25;101450.51;;;1.43;81.73
44044;BME280;29709;52.396;16.796;2023-02-26T07:21:39;101464.59;;;1.34;81.79
44044;BME280;29709;52.396;16.796;2023-02-26T07:24:52;101466.27;;;1.36;82.30
44044;BME280;29709;52.396;16.796;2023-02-26T07:28:06;101480.59;;;1.38;82.50
44044;BME280;29709;52.396;16.796;2023-02-26T07:31:19;101480.59;;;1.38;82.50
44044;BME280;29709;52.396;16.796;2023-02-26T07:34:33;101485.62;;;1.44;82.87
44044;BME280;29709;52.396;16.796;2023-02-26T07:37:49;101497.53;;;1.56;82.79
44044;BME280;29709;52.396;16.796;2023-02-26T07:41:04;101493.49;;;1.63;82.72
44044;BME280;29709;52.396;16.796;2023-02-26T07:44:18;101492.73;;;1.76;82.50
44044;BME280;29709;52.396;16.796;2023-02-26T07:47:31;101501.37;;;1.82;82.29
44044;BME280;29709;52.396;16.796;2023-02-26T07:50:45;101497.48;;;1.86;81.97
44044;BME280;29709;52.396;16.796;2023-02-26T07:53:59;101500.70;;;1.93;81.91
44044;BME280;29709;52.396;16.796;2023-02-26T07:57:12;101510.98;;;2.02;81.24
44044;BME280;29709;52.396;16.796;2023-02-26T08:00:26;101517.66;;;2.11;80.74
44044;BME280;29709;52.396;16.796;2023-02-26T08:03:39;101522.88;;;2.14;80.20
44044;BME280;29709;52.396;16.796;2023-02-26T08:06:53;101529.57;;;2.22;79.76
44044;BME280;29709;52.396;16.796;2023-02-26T08:10:09;101538.85;;;2.18;78.52
44044;BME280;29709;52.396;16.796;2023-02-26T08:13:23;101539.82;;;2.17;78.40
44044;BME280;29709;52.396;16.796;2023-02-26T08:16:37;101544.78;;;2.11;77.85
44044;BME280;29709;52.396;16.796;2023-02-26T08:19:50;101548.65;;;2.21;77.28
44044;BME280;29709;52.396;16.796;2023-02-26T08:23:03;101568.51;;;2.21;77.30
44044;BME280;29709;52.396;16.796;2023-02-26T08:26:17;101575.37;;;2.27;77.71
44044;BME280;29709;52.396;16.796;2023-02-26T08:29:31;101575.96;;;2.32;76.51
44044;BME280;29709;52.396;16.796;2023-02-26T08:32:45;101577.91;;;2.30;76.66
44044;BME280;29709;52.396;16.796;2023-02-26T08:35:59;101588.77;;;2.30;76.31
44044;BME280;29709;52.396;16.796;2023-02-26T08:39:13;101589.90;;;2.26;76.32
44044;BME280;29709;52.396;16.796;2023-02-26T08:42:27;101593.32;;;2.29;76.29
44044;BME280;29709;52.396;16.796;2023-02-26T08:45:40;101596.60;;;2.35;76.11
44044;BME280;29709;52.396;16.796;2023-02-26T08:48:54;101609.20;;;2.36;75.82
44044;BME280;29709;52.396;16.796;2023-02-26T08:52:08;101612.87;;;2.35;76.01
44044;BME280;29709;52.396;16.796;2023-02-26T08:55:22;101619.84;;;2.39;75.30
44044;BME280;29709;52.396;16.796;2023-02-26T08:58:35;101615.88;;;2.44;75.33
44044;BME280;29709;52.396;16.796;2023-02-26T09:01:49;101627.51;;;2.46;74.92
44044;BME280;29709;52.396;16.796;2023-02-26T09:05:05;101637.23;;;2.50;74.60
44044;BME280;29709;52.396;16.796;2023-02-26T09:08:18;101652.80;;;2.47;74.52
44044;BME280;29709;52.396;16.796;2023-02-26T09:11:33;101659.97;;;2.48;74.45
44044;BME280;29709;52.396;16.796;2023-02-26T09:14:48;101662.98;;;2.57;74.25
44044;BME280;29709;52.396;16.796;2023-02-26T09:18:03;101662.20;;;2.70;73.82
44044;BME280;29709;52.396;16.796;2023-02-26T09:21:16;101664.94;;;2.84;73.61
44044;BME280;29709;52.396;16.796;2023-02-26T09:24:30;101675.88;;;2.97;72.49
44044;BME280;29709;52.396;16.796;2023-02-26T09:27:43;101666.55;;;3.01;70.75
44044;BME280;29709;52.396;16.796;2023-02-26T09:30:57;101682.85;;;3.01;70.46
44044;BME280;29709;52.396;16.796;2023-02-26T09:34:10;101682.85;;;3.15;69.47
44044;BME280;29709;52.396;16.796;2023-02-26T09:37:25;101695.91;;;3.23;69.08
44044;BME280;29709;52.396;16.796;2023-02-26T09:44:13;101703.69;;;3.29;68.26
44044;BME280;29709;52.396;16.796;2023-02-26T09:47:35;101709.22;;;3.27;67.90
44044;BME280;29709;52.396;16.796;2023-02-26T09:50:56;101715.80;;;3.37;67.46
44044;BME280;29709;52.396;16.796;2023-02-26T09:54:19;101726.73;;;3.50;65.66
44044;BME280;29709;52.396;16.796;2023-02-26T09:57:36;101735.31;;;3.44;64.38
44044;BME280;29709;52.396;16.796;2023-02-26T10:14:48;101750.10;;;3.94;61.95
44044;BME280;29709;52.396;16.796;2023-02-26T10:18:10;101753.36;;;3.86;62.37
44044;BME280;29709;52.396;16.796;2023-02-26T10:25:02;101766.10;;;3.71;61.31
44044;BME280;29709;52.396;16.796;2023-02-26T10:35:13;101774.26;;;3.71;60.89
44044;BME280;29709;52.396;16.796;2023-02-26T10:38:30;101785.02;;;3.87;61.05
44044;BME280;29709;52.396;16.796;2023-02-26T10:41:45;101796.77;;;3.88;62.28
44044;BME280;29709;52.396;16.796;2023-02-26T10:51:53;101801.09;;;3.49;62.24
44044;BME280;29709;52.396;16.796;2023-02-26T10:55:18;101807.01;;;3.41;62.20
44044;BME280;29709;52.396;16.796;2023-02-26T10:58:30;101811.68;;;3.39;62.08
44044;BME280;29709;52.396;16.796;2023-02-26T11:01:45;101814.99;;;3.44;62.64
44044;BME280;29709;52.396;16.796;2023-02-26T11:05:02;101809.91;;;3.53;61.26
44044;BME280;29709;52.396;16.796;2023-02-26T11:08:25;101820.62;;;3.56;61.88
44044;BME280;29709;52.396;16.796;2023-02-26T11:11:51;101820.30;;;3.60;62.00
44044;BME280;29709;52.396;16.796;2023-02-26T11:15:11;101817.66;;;3.73;61.71
44044;BME280;29709;52.396;16.796;2023-02-26T11:18:28;101823.37;;;3.83;62.61
44044;BME280;29709;52.396;16.796;2023-02-26T11:21:44;101831.27;;;4.14;62.59
44044;BME280;29709;52.396;16.796;2023-02-26T11:24:59;101823.87;;;4.43;61.42
44044;BME280;29709;52.396;16.796;2023-02-26T11:28:20;101826.19;;;4.49;60.13
44044;BME280;29709;52.396;16.796;2023-02-26T11:31:38;101826.19;;;4.49;58.49
44044;BME280;29709;52.396;16.796;2023-02-26T11:34:53;101837.59;;;4.42;58.41
44044;BME280;29709;52.396;16.796;2023-02-26T11:38:17;101836.86;;;4.25;58.34
44044;BME280;29709;52.396;16.796;2023-02-26T11:41:36;101846.82;;;4.12;58.29
44044;BME280;29709;52.396;16.796;2023-02-26T11:44:51;101851.02;;;4.03;59.47
44044;BME280;29709;52.396;16.796;2023-02-26T11:48:08;101853.73;;;4.03;58.70
44044;BME280;29709;52.396;16.796;2023-02-26T11:51:25;101854.60;;;4.04;59.39
44044;BME280;29709;52.396;16.796;2023-02-26T11:54:39;101859.16;;;4.18;59.67
44044;BME280;29709;52.396;16.796;2023-02-26T11:57:54;101850.02;;;4.19;59.43
44044;BME280;29709;52.396;16.796;2023-02-26T12:01:10;101858.52;;;4.27;58.73
44044;BME280;29709;52.396;16.796;2023-02-26T12:04:25;101863.35;;;4.36;58.21
44044;BME280;29709;52.396;16.796;2023-02-26T12:07:39;101853.16;;;4.40;58.30
44044;BME280;29709;52.396;16.796;2023-02-26T12:35:09;101874.21;;;4.50;55.11
44044;BME280;29709;52.396;16.796;2023-02-26T12:46:11;101909.01;;;4.18;55.95
44044;BME280;29709;52.396;16.796;2023-02-26T12:52:22;101913.12;;;3.97;57.41
44044;BME280;29709;52.396;16.796;2023-02-26T12:59:11;101916.48;;;4.15;54.68
44044;BME280;29709;52.396;16.796;2023-02-26T13:02:49;101926.69;;;4.11;55.77
44044;BME280;29709;52.396;16.796;2023-02-26T13:06:04;101921.64;;;4.19;55.68
44044;BME280;29709;52.396;16.796;2023-02-26T13:19:46;101917.59;;;4.93;54.42
44044;BME280;29709;52.396;16.796;2023-02-26T13:23:11;101927.80;;;4.89;52.79
44044;BME280;29709;52.396;16.796;2023-02-26T13:26:28;101922.43;;;4.75;51.30
44044;BME280;29709;52.396;16.796;2023-02-26T13:29:50;101930.09;;;4.56;51.86
44044;BME280;29709;52.396;16.796;2023-02-26T13:33:16;101930.40;;;4.51;52.10
44044;BME280;29709;52.396;16.796;2023-02-26T13:36:31;101950.16;;;4.41;50.33
44044;BME280;29709;52.396;16.796;2023-02-26T13:55:40;101951.32;;;4.37;50.79
44044;BME280;29709;52.396;16.796;2023-02-26T14:05:54;101954.38;;;5.13;49.90
44044;BME280;29709;52.396;16.796;2023-02-26T14:12:35;101972.30;;;4.90;49.87
44044;BME280;29709;52.396;16.796;2023-02-26T14:19:26;101974.99;;;4.63;50.05
44044;BME280;29709;52.396;16.796;2023-02-26T14:22:42;101982.24;;;4.50;50.71
44044;BME280;29709;52.396;16.796;2023-02-26T14:26:04;101988.73;;;4.47;50.23
44044;BME280;29709;52.396;16.796;2023-02-26T14:29:29;101983.70;;;4.41;50.76
44044;BME280;29709;52.396;16.796;2023-02-26T14:32:53;101997.48;;;4.52;51.25
44044;BME280;29709;52.396;16.796;2023-02-26T14:36:16;101996.98;;;4.60;51.09
44044;BME280;29709;52.396;16.796;2023-02-26T14:39:35;101992.31;;;4.62;49.31
44044;BME280;29709;52.396;16.796;2023-02-26T14:42:53;102012.46;;;4.59;50.04
44044;BME280;29709;52.396;16.796;2023-02-26T14:46:09;102016.05;;;4.60;49.59
44044;BME280;29709;52.396;16.796;2023-02-26T14:49:33;102022.97;;;4.51;48.82
44044;BME280;29709;52.396;16.796;2023-02-26T14:56:23;102024.52;;;4.27;48.47
44044;BME280;29709;52.396;16.796;2023-02-26T15:10:12;102039.58;;;4.04;47.25
44044;BME280;29709;52.396;16.796;2023-02-26T15:23:49;102053.48;;;4.14;46.61
44044;BME280;29709;52.396;16.796;2023-02-26T15:27:06;102047.17;;;4.13;47.24
44044;BME280;29709;52.396;16.796;2023-02-26T15:30:23;102049.52;;;4.19;48.11
44044;BME280;29709;52.396;16.796;2023-02-26T15:33:38;102052.05;;;4.22;47.92
44044;BME280;29709;52.396;16.796;2023-02-26T15:36:52;102053.42;;;4.29;48.21
44044;BME280;29709;52.396;16.796;2023-02-26T15:40:13;102056.23;;;4.28;47.53
44044;BME280;29709;52.396;16.796;2023-02-26T15:43:27;102063.90;;;4.21;47.80
44044;BME280;29709;52.396;16.796;2023-02-26T15:46:44;102055.23;;;4.15;47.40
44044;BME280;29709;52.396;16.796;2023-02-26T15:49:59;102051.24;;;4.06;47.51
44044;BME280;29709;52.396;16.796;2023-02-26T15:53:20;102070.38;;;4.04;48.81
44044;BME280;29709;52.396;16.796;2023-02-26T15:56:37;102072.12;;;4.05;49.20
44044;BME280;29709;52.396;16.796;2023-02-26T16:00:00;102081.27;;;4.04;49.95
44044;BME280;29709;52.396;16.796;2023-02-26T16:03:14;102087.68;;;4.03;50.68
44044;BME280;29709;52.396;16.796;2023-02-26T16:06:34;102087.10;;;3.98;51.77
44044;BME280;29709;52.396;16.796;2023-02-26T16:09:52;102088.14;;;3.96;53.36
44044;BME280;29709;52.396;16.796;2023-02-26T16:13:12;102097.87;;;3.86;54.41
44044;BME280;29709;52.396;16.796;2023-02-26T16:16:32;102096.38;;;3.80;55.42
44044;BME280;29709;52.396;16.796;2023-02-26T16:19:47;102112.27;;;3.72;56.62
44044;BME280;29709;52.396;16.796;2023-02-26T16:23:09;102118.00;;;3.67;56.78
44044;BME280;29709;52.396;16.796;2023-02-26T16:26:37;102126.27;;;3.50;56.89
44044;BME280;29709;52.396;16.796;2023-02-26T16:29:51;102131.99;;;3.45;57.14
44044;BME280;29709;52.396;16.796;2023-02-26T16:33:14;102132.16;;;3.42;57.62
44044;BME280;29709;52.396;16.796;2023-02-26T16:36:39;102141.55;;;3.37;57.84
44044;BME280;29709;52.396;16.796;2023-02-26T16:46:45;102140.44;;;3.25;58.50
44044;BME280;29709;52.396;16.796;2023-02-26T16:50:01;102152.17;;;3.26;58.75
44044;BME280;29709;52.396;16.796;2023-02-26T16:53:18;102160.66;;;3.19;59.00
44044;BME280;29709;52.396;16.796;2023-02-26T16:56:37;102168.82;;;3.19;59.20
44044;BME280;29709;52.396;16.796;2023-02-26T16:59:55;102169.69;;;3.20;59.37
44044;BME280;29709;52.396;16.796;2023-02-26T17:03:12;102166.97;;;3.20;59.40
44044;BME280;29709;52.396;16.796;2023-02-26T17:06:27;102182.59;;;3.16;59.63
44044;BME280;29709;52.396;16.796;2023-02-26T17:09:50;102186.26;;;3.15;59.57
44044;BME280;29709;52.396;16.796;2023-02-26T17:13:27;102190.20;;;3.10;59.50
44044;BME280;29709;52.396;16.796;2023-02-26T17:16:29;102195.89;;;3.05;59.23
44044;BME280;29709;52.396;16.796;2023-02-26T17:19:43;102207.88;;;3.01;59.46
44044;BME280;29709;52.396;16.796;2023-02-26T17:22:57;102198.16;;;2.97;59.67
44044;BME280;29709;52.396;16.796;2023-02-26T17:26:11;102211.91;;;2.94;59.36
44044;BME280;29709;52.396;16.796;2023-02-26T17:29:34;102211.18;;;2.90;59.33
44044;BME280;29709;52.396;16.796;2023-02-26T17:32:49;102221.17;;;2.90;59.33
44044;BME280;29709;52.396;16.796;2023-02-26T17:36:03;102221.45;;;2.85;59.49
44044;BME280;29709;52.396;16.796;2023-02-26T17:39:17;102223.27;;;2.85;59.23
44044;BME280;29709;52.396;16.796;2023-02-26T17:42:32;102230.64;;;2.83;59.39
44044;BME280;29709;52.396;16.796;2023-02-26T17:45:47;102237.35;;;2.76;58.95
44044;BME280;29709;52.396;16.796;2023-02-26T17:49:01;102235.77;;;2.72;59.06
44044;BME280;29709;52.396;16.796;2023-02-26T17:52:15;102233.29;;;2.67;59.22
44044;BME280;29709;52.396;16.796;2023-02-26T17:55:28;102233.47;;;2.64;59.29
44044;BME280;29709;52.396;16.796;2023-02-26T17:58:42;102235.62;;;2.57;59.20
44044;BME280;29709;52.396;16.796;2023-02-26T18:01:57;102251.28;;;2.52;59.42
44044;BME280;29709;52.396;16.796;2023-02-26T18:05:11;102248.97;;;2.45;59.72
44044;BME280;29709;52.396;16.796;2023-02-26T18:08:28;102245.69;;;2.38;59.89
44044;BME280;29709;52.396;16.796;2023-02-26T18:11:42;102247.99;;;2.28;60.17
44044;BME280;29709;52.396;16.796;2023-02-26T18:14:56;102250.87;;;2.25;60.33
44044;BME280;29709;52.396;16.796;2023-02-26T18:18:11;102246.80;;;2.17;60.62
44044;BME280;29709;52.396;16.796;2023-02-26T18:21:25;102260.70;;;2.11;61.04
44044;BME280;29709;52.396;16.796;2023-02-26T18:24:39;102251.60;;;2.12;61.31
44044;BME280;29709;52.396;16.796;2023-02-26T18:27:54;102258.95;;;2.10;61.31
44044;BME280;29709;52.396;16.796;2023-02-26T18:31:14;102256.28;;;2.08;61.54
44044;BME280;29709;52.396;16.796;2023-02-26T18:34:28;102267.22;;;2.07;61.69
44044;BME280;29709;52.396;16.796;2023-02-26T18:37:43;102258.08;;;2.09;61.50
44044;BME280;29709;52.396;16.796;2023-02-26T18:40:57;102266.04;;;2.12;61.59
44044;BME280;29709;52.396;16.796;2023-02-26T18:44:14;102264.83;;;2.18;61.89
44044;BME280;29709;52.396;16.796;2023-02-26T18:47:27;102276.26;;;2.24;61.45
44044;BME280;29709;52.396;16.796;2023-02-26T18:50:42;102280.09;;;2.20;61.65
44044;BME280;29709;52.396;16.796;2023-02-26T18:53:56;102289.19;;;2.19;61.76
44044;BME280;29709;52.396;16.796;2023-02-26T18:57:09;102295.41;;;2.21;61.74
44044;BME280;29709;52.396;16.796;2023-02-26T19:00:24;102304.73;;;2.16;62.31
44044;BME280;29709;52.396;16.796;2023-02-26T19:03:40;102302.80;;;2.18;62.58
44044;BME280;29709;52.396;16.796;2023-02-26T19:06:54;102304.51;;;2.20;62.90
44044;BME280;29709;52.396;16.796;2023-02-26T19:10:10;102313.60;;;2.19;63.12
44044;BME280;29709;52.396;16.796;2023-02-26T19:13:27;102307.05;;;2.23;62.76
44044;BME280;29709;52.396;16.796;2023-02-26T19:16:41;102318.06;;;2.20;62.41
44044;BME280;29709;52.396;16.796;2023-02-26T19:19:55;102311.60;;;2.23;62.44
44044;BME280;29709;52.396;16.796;2023-02-26T19:23:09;102322.37;;;2.24;61.52
44044;BME280;29709;52.396;16.796;2023-02-26T19:26:23;102321.66;;;2.21;59.88
44044;BME280;29709;52.396;16.796;2023-02-26T19:29:37;102323.33;;;2.23;59.78
44044;BME280;29709;52.396;16.796;2023-02-26T19:32:51;102333.05;;;2.27;59.11
44044;BME280;29709;52.396;16.796;2023-02-26T19:36:07;102336.73;;;2.26;58.56
44044;BME280;29709;52.396;16.796;2023-02-26T19:39:21;102336.81;;;2.25;58.40
44044;BME280;29709;52.396;16.796;2023-02-26T19:42:35;102343.11;;;2.25;58.66
44044;BME280;29709;52.396;16.796;2023-02-26T19:45:49;102351.25;;;2.25;58.95
44044;BME280;29709;52.396;16.796;2023-02-26T19:49:03;102353.25;;;2.22;58.26
44044;BME280;29709;52.396;16.796;2023-02-26T19:52:17;102354.21;;;2.21;58.47
44044;BME280;29709;52.396;16.796;2023-02-26T19:55:30;102360.51;;;2.21;58.41
44044;BME280;29709;52.396;16.796;2023-02-26T19:58:44;102367.52;;;2.25;58.47
44044;BME280;29709;52.396;16.796;2023-02-26T20:01:58;102377.66;;;2.22;57.66
44044;BME280;29709;52.396;16.796;2023-02-26T20:05:12;102383.09;;;2.22;57.95
44044;BME280;29709;52.396;16.796;2023-02-26T20:08:30;102386.68;;;2.22;56.84
44044;BME280;29709;52.396;16.796;2023-02-26T20:11:45;102384.04;;;2.21;57.23
44044;BME280;29709;52.396;16.796;2023-02-26T20:14:58;102391.43;;;2.17;57.47
44044;BME280;29709;52.396;16.796;2023-02-26T20:18:12;102388.88;;;2.14;56.92
44044;BME280;29709;52.396;16.796;2023-02-26T20:21:26;102393.27;;;2.17;57.12
44044;BME280;29709;52.396;16.796;2023-02-26T20:24:40;102401.33;;;2.18;57.34
44044;BME280;29709;52.396;16.796;2023-02-26T20:27:53;102410.41;;;2.17;57.20
44044;BME280;29709;52.396;16.796;2023-02-26T20:31:07;102409.25;;;2.23;57.37
44044;BME280;29709;52.396;16.796;2023-02-26T20:34:21;102409.09;;;2.26;57.36